メインページ
METAR-TAF:

METAR-TAF

空港 :

キング・ファハド国際空港

ダンマーム, サウジアラビア

緯度: 26-28N, 経度: 049-47E, 海抜: 22m

現時点の気象観測

当レポートは21分前の04:00(UTC)に作成
西/北西の風 6kt
気温 22°C
湿度 65%
気圧 1006 hPa
視程10km以上
高度4000ftの雲はほとんどない

METAR: OEDF 220400Z 30006KT 9999 FEW040 22/15 Q1006 NOSIG

時間: 07:21 (04:21 UTC)

予報

当レポートは7時間46分前の20:35(UTC)に作成
予報は22日の 00時(UTC)から 23日の 06時(UTC)まで有効
変向風 5kt
視程: 8000m
確率 30% :
22日の 00時(UTC)から 22日の 06時(UTC)まで一時的に
変向風 12kt、最大25ktの突風を伴う
視程: 5000m
高度3000ftの雲はほとんどない, 積乱雲.
激しい雷雨, 雨
22日の 05時(UTC)から 22日の 07時(UTC)まで徐々に
北/北西の風 17kt、最大30ktの突風を伴う
視程: 5000m
風塵
確率 30% :
22日の 08時(UTC)から 22日の 12時(UTC)まで一時的に
視程: 1500m

TAF: OEDF 212035Z 2200/2306 VRB05KT 8000 NSC PROB30 TEMPO 2200/2206 VRB12G25KT 5000 TSRA FEW030CB BECMG 2205/2207 34017G30KT 5000 BLDU PROB30 TEMPO 2208/2212 1500

4,000以上の空港の気象観測と天気予報(METAR報とTAF報)

利用可能な観測所は地図上に黄色い丸と赤い丸で示す。

丸の上にカーソルを重ねると観測所名を参照できる。

次にクリックすると気象観測と天気予報を参照できる。

マップの切り替え:黒色「×」印の緑ボタンをクリックして拡大、「-」印の緑ボタンをクリックして縮小、緑色の三角印をクリックして隣りの地図に切り替え


METAR-TAF: